sensor_id;sensor_type;location;lat;lon;timestamp;P1;durP1;ratioP1;P2;durP2;ratioP2
63189;SDS011;49286;44.460;26.114;2023-04-28T00:01:14;17.40;;;9.60;;
63189;SDS011;49286;44.460;26.114;2023-04-28T00:03:40;16.45;;;8.93;;
63189;SDS011;49286;44.460;26.114;2023-04-28T00:06:05;11.07;;;8.00;;
63189;SDS011;49286;44.460;26.114;2023-04-28T00:08:31;8.35;;;4.82;;
63189;SDS011;49286;44.460;26.114;2023-04-28T00:10:56;15.65;;;8.20;;
63189;SDS011;49286;44.460;26.114;2023-04-28T00:13:22;14.20;;;7.38;;
63189;SDS011;49286;44.460;26.114;2023-04-28T00:15:51;11.73;;;7.97;;
63189;SDS011;49286;44.460;26.114;2023-04-28T00:18:17;13.90;;;8.50;;
63189;SDS011;49286;44.460;26.114;2023-04-28T00:20:43;13.07;;;8.75;;
63189;SDS011;49286;44.460;26.114;2023-04-28T00:23:09;13.85;;;8.40;;
63189;SDS011;49286;44.460;26.114;2023-04-28T00:25:34;17.00;;;9.43;;
63189;SDS011;49286;44.460;26.114;2023-04-28T00:28:00;18.42;;;5.20;;
63189;SDS011;49286;44.460;26.114;2023-04-28T00:30:25;11.93;;;5.35;;
63189;SDS011;49286;44.460;26.114;2023-04-28T00:32:51;12.13;;;8.55;;
63189;SDS011;49286;44.460;26.114;2023-04-28T00:35:17;13.05;;;8.57;;
63189;SDS011;49286;44.460;26.114;2023-04-28T00:37:42;11.07;;;5.85;;
63189;SDS011;49286;44.460;26.114;2023-04-28T00:40:08;11.32;;;6.40;;
63189;SDS011;49286;44.460;26.114;2023-04-28T00:42:34;16.42;;;8.32;;
63189;SDS011;49286;44.460;26.114;2023-04-28T00:45:00;13.90;;;8.70;;
63189;SDS011;49286;44.460;26.114;2023-04-28T00:47:30;9.45;;;8.20;;
63189;SDS011;49286;44.460;26.114;2023-04-28T00:49:58;14.80;;;8.48;;
63189;SDS011;49286;44.460;26.114;2023-04-28T00:52:24;19.27;;;10.13;;
63189;SDS011;49286;44.460;26.114;2023-04-28T00:54:50;13.63;;;7.82;;
63189;SDS011;49286;44.460;26.114;2023-04-28T00:57:16;18.38;;;10.23;;
63189;SDS011;49286;44.460;26.114;2023-04-28T00:59:41;12.32;;;5.65;;
63189;SDS011;49286;44.460;26.114;2023-04-28T01:02:06;15.15;;;9.90;;
63189;SDS011;49286;44.460;26.114;2023-04-28T01:04:32;13.98;;;9.00;;
63189;SDS011;49286;44.460;26.114;2023-04-28T01:06:59;15.40;;;9.85;;
63189;SDS011;49286;44.460;26.114;2023-04-28T01:09:25;12.68;;;9.40;;
63189;SDS011;49286;44.460;26.114;2023-04-28T01:11:51;9.48;;;6.07;;
63189;SDS011;49286;44.460;26.114;2023-04-28T01:14:16;13.02;;;9.15;;
63189;SDS011;49286;44.460;26.114;2023-04-28T01:16:42;11.05;;;8.48;;
63189;SDS011;49286;44.460;26.114;2023-04-28T01:19:12;11.00;;;8.60;;
63189;SDS011;49286;44.460;26.114;2023-04-28T01:21:46;10.57;;;7.45;;
63189;SDS011;49286;44.460;26.114;2023-04-28T01:24:11;16.80;;;10.25;;
63189;SDS011;49286;44.460;26.114;2023-04-28T01:26:37;21.77;;;10.05;;
63189;SDS011;49286;44.460;26.114;2023-04-28T01:29:02;14.55;;;9.40;;
63189;SDS011;49286;44.460;26.114;2023-04-28T01:31:28;14.35;;;9.45;;
63189;SDS011;49286;44.460;26.114;2023-04-28T01:33:55;14.23;;;9.43;;
63189;SDS011;49286;44.460;26.114;2023-04-28T01:36:20;13.43;;;8.73;;
63189;SDS011;49286;44.460;26.114;2023-04-28T01:38:47;17.75;;;10.18;;
63189;SDS011;49286;44.460;26.114;2023-04-28T01:41:13;17.80;;;8.95;;
63189;SDS011;49286;44.460;26.114;2023-04-28T01:43:39;17.10;;;10.82;;
63189;SDS011;49286;44.460;26.114;2023-04-28T01:46:05;18.88;;;10.48;;
63189;SDS011;49286;44.460;26.114;2023-04-28T01:48:30;9.52;;;8.45;;
63189;SDS011;49286;44.460;26.114;2023-04-28T01:50:56;13.70;;;10.88;;
63189;SDS011;49286;44.460;26.114;2023-04-28T01:53:21;12.10;;;9.77;;
63189;SDS011;49286;44.460;26.114;2023-04-28T01:55:47;15.38;;;9.77;;
63189;SDS011;49286;44.460;26.114;2023-04-28T01:58:12;14.15;;;9.27;;
63189;SDS011;49286;44.460;26.114;2023-04-28T02:00:38;12.75;;;9.77;;
63189;SDS011;49286;44.460;26.114;2023-04-28T02:03:03;8.00;;;5.95;;
63189;SDS011;49286;44.460;26.114;2023-04-28T02:05:29;20.85;;;11.40;;
63189;SDS011;49286;44.460;26.114;2023-04-28T02:07:54;18.50;;;10.48;;
63189;SDS011;49286;44.460;26.114;2023-04-28T02:10:20;15.20;;;9.65;;
63189;SDS011;49286;44.460;26.114;2023-04-28T02:12:45;23.83;;;10.88;;
63189;SDS011;49286;44.460;26.114;2023-04-28T02:15:11;12.57;;;10.35;;
63189;SDS011;49286;44.460;26.114;2023-04-28T02:17:36;16.95;;;11.32;;
63189;SDS011;49286;44.460;26.114;2023-04-28T02:20:02;25.20;;;11.05;;
63189;SDS011;49286;44.460;26.114;2023-04-28T02:22:27;19.80;;;10.75;;
63189;SDS011;49286;44.460;26.114;2023-04-28T02:24:53;20.02;;;11.15;;
63189;SDS011;49286;44.460;26.114;2023-04-28T02:27:19;18.13;;;12.25;;
63189;SDS011;49286;44.460;26.114;2023-04-28T02:29:45;12.57;;;9.35;;
63189;SDS011;49286;44.460;26.114;2023-04-28T02:32:10;15.07;;;10.93;;
63189;SDS011;49286;44.460;26.114;2023-04-28T02:34:36;19.63;;;10.82;;
63189;SDS011;49286;44.460;26.114;2023-04-28T02:37:01;18.65;;;10.95;;
63189;SDS011;49286;44.460;26.114;2023-04-28T02:39:27;14.75;;;10.25;;
63189;SDS011;49286;44.460;26.114;2023-04-28T02:41:54;9.85;;;6.32;;
63189;SDS011;49286;44.460;26.114;2023-04-28T02:44:19;11.35;;;9.50;;
63189;SDS011;49286;44.460;26.114;2023-04-28T02:46:45;14.00;;;9.00;;
63189;SDS011;49286;44.460;26.114;2023-04-28T02:49:11;14.10;;;8.75;;
63189;SDS011;49286;44.460;26.114;2023-04-28T02:51:37;18.23;;;10.65;;
63189;SDS011;49286;44.460;26.114;2023-04-28T02:54:02;18.70;;;10.63;;
63189;SDS011;49286;44.460;26.114;2023-04-28T02:56:28;9.75;;;5.32;;
63189;SDS011;49286;44.460;26.114;2023-04-28T02:58:57;12.70;;;9.85;;
63189;SDS011;49286;44.460;26.114;2023-04-28T03:01:22;11.20;;;9.55;;
63189;SDS011;49286;44.460;26.114;2023-04-28T03:03:48;18.52;;;9.85;;
63189;SDS011;49286;44.460;26.114;2023-04-28T03:06:14;13.15;;;10.43;;
63189;SDS011;49286;44.460;26.114;2023-04-28T03:08:39;11.00;;;5.45;;
63189;SDS011;49286;44.460;26.114;2023-04-28T03:11:05;17.88;;;10.30;;
63189;SDS011;49286;44.460;26.114;2023-04-28T03:13:31;13.20;;;10.75;;
63189;SDS011;49286;44.460;26.114;2023-04-28T03:15:56;15.18;;;10.88;;
63189;SDS011;49286;44.460;26.114;2023-04-28T03:18:22;13.25;;;9.70;;
63189;SDS011;49286;44.460;26.114;2023-04-28T03:20:48;10.07;;;6.25;;
63189;SDS011;49286;44.460;26.114;2023-04-28T03:23:14;9.88;;;7.40;;
63189;SDS011;49286;44.460;26.114;2023-04-28T03:25:39;18.42;;;10.88;;
63189;SDS011;49286;44.460;26.114;2023-04-28T03:28:05;15.48;;;9.40;;
63189;SDS011;49286;44.460;26.114;2023-04-28T03:30:30;18.63;;;10.55;;
63189;SDS011;49286;44.460;26.114;2023-04-28T03:32:56;20.42;;;10.63;;
63189;SDS011;49286;44.460;26.114;2023-04-28T03:35:21;15.75;;;9.85;;
63189;SDS011;49286;44.460;26.114;2023-04-28T03:37:47;21.10;;;11.10;;
63189;SDS011;49286;44.460;26.114;2023-04-28T03:40:13;13.35;;;10.88;;
63189;SDS011;49286;44.460;26.114;2023-04-28T03:42:38;10.05;;;6.80;;
63189;SDS011;49286;44.460;26.114;2023-04-28T03:45:04;21.48;;;11.52;;
63189;SDS011;49286;44.460;26.114;2023-04-28T03:47:30;17.33;;;11.57;;
63189;SDS011;49286;44.460;26.114;2023-04-28T03:49:55;28.90;;;11.13;;
63189;SDS011;49286;44.460;26.114;2023-04-28T03:52:23;16.75;;;11.35;;
63189;SDS011;49286;44.460;26.114;2023-04-28T03:54:48;11.25;;;7.05;;
63189;SDS011;49286;44.460;26.114;2023-04-28T03:57:14;18.65;;;12.85;;
63189;SDS011;49286;44.460;26.114;2023-04-28T03:59:39;16.02;;;11.05;;
63189;SDS011;49286;44.460;26.114;2023-04-28T04:02:05;39.33;;;11.40;;
63189;SDS011;49286;44.460;26.114;2023-04-28T04:04:30;16.38;;;10.30;;
63189;SDS011;49286;44.460;26.114;2023-04-28T04:06:55;10.05;;;6.70;;
63189;SDS011;49286;44.460;26.114;2023-04-28T04:09:21;9.57;;;7.10;;
63189;SDS011;49286;44.460;26.114;2023-04-28T04:11:47;17.10;;;11.02;;
63189;SDS011;49286;44.460;26.114;2023-04-28T04:14:12;19.60;;;11.73;;
63189;SDS011;49286;44.460;26.114;2023-04-28T04:16:38;16.35;;;11.30;;
63189;SDS011;49286;44.460;26.114;2023-04-28T04:19:03;18.80;;;11.18;;
63189;SDS011;49286;44.460;26.114;2023-04-28T04:21:29;19.20;;;11.60;;
63189;SDS011;49286;44.460;26.114;2023-04-28T04:23:55;15.65;;;10.38;;
63189;SDS011;49286;44.460;26.114;2023-04-28T04:26:21;16.35;;;7.72;;
63189;SDS011;49286;44.460;26.114;2023-04-28T04:28:48;12.18;;;6.60;;
63189;SDS011;49286;44.460;26.114;2023-04-28T04:31:13;15.23;;;10.85;;
63189;SDS011;49286;44.460;26.114;2023-04-28T04:33:39;22.52;;;11.05;;
63189;SDS011;49286;44.460;26.114;2023-04-28T04:36:05;15.10;;;10.60;;
63189;SDS011;49286;44.460;26.114;2023-04-28T04:38:31;29.75;;;13.05;;
63189;SDS011;49286;44.460;26.114;2023-04-28T04:40:56;21.38;;;12.80;;
63189;SDS011;49286;44.460;26.114;2023-04-28T04:43:22;17.05;;;11.52;;
63189;SDS011;49286;44.460;26.114;2023-04-28T04:45:47;17.40;;;8.77;;
63189;SDS011;49286;44.460;26.114;2023-04-28T04:48:13;31.05;;;8.48;;
63189;SDS011;49286;44.460;26.114;2023-04-28T04:50:39;16.52;;;12.15;;
63189;SDS011;49286;44.460;26.114;2023-04-28T04:53:05;20.63;;;10.55;;
63189;SDS011;49286;44.460;26.114;2023-04-28T04:55:30;20.92;;;10.70;;
63189;SDS011;49286;44.460;26.114;2023-04-28T04:57:56;17.42;;;12.63;;
63189;SDS011;49286;44.460;26.114;2023-04-28T05:00:21;20.17;;;11.93;;
63189;SDS011;49286;44.460;26.114;2023-04-28T05:02:47;16.88;;;12.50;;
63189;SDS011;49286;44.460;26.114;2023-04-28T05:05:12;20.17;;;10.85;;
63189;SDS011;49286;44.460;26.114;2023-04-28T05:07:38;24.83;;;11.45;;
63189;SDS011;49286;44.460;26.114;2023-04-28T05:10:03;21.52;;;13.23;;
63189;SDS011;49286;44.460;26.114;2023-04-28T05:12:31;27.58;;;13.10;;
63189;SDS011;49286;44.460;26.114;2023-04-28T05:14:56;19.30;;;12.35;;
63189;SDS011;49286;44.460;26.114;2023-04-28T05:17:22;15.70;;;10.40;;
63189;SDS011;49286;44.460;26.114;2023-04-28T05:19:47;15.88;;;12.68;;
63189;SDS011;49286;44.460;26.114;2023-04-28T05:22:13;14.57;;;10.50;;
63189;SDS011;49286;44.460;26.114;2023-04-28T05:24:38;16.73;;;12.52;;
63189;SDS011;49286;44.460;26.114;2023-04-28T05:27:03;20.30;;;11.60;;
63189;SDS011;49286;44.460;26.114;2023-04-28T05:29:29;15.27;;;11.20;;
63189;SDS011;49286;44.460;26.114;2023-04-28T05:31:54;19.27;;;11.15;;
63189;SDS011;49286;44.460;26.114;2023-04-28T05:34:20;15.38;;;8.90;;
63189;SDS011;49286;44.460;26.114;2023-04-28T05:36:45;14.07;;;9.55;;
63189;SDS011;49286;44.460;26.114;2023-04-28T05:39:11;12.85;;;10.07;;
63189;SDS011;49286;44.460;26.114;2023-04-28T05:41:36;14.50;;;9.32;;
63189;SDS011;49286;44.460;26.114;2023-04-28T05:44:02;17.55;;;10.52;;
63189;SDS011;49286;44.460;26.114;2023-04-28T05:46:27;20.58;;;8.80;;
63189;SDS011;49286;44.460;26.114;2023-04-28T05:48:53;11.38;;;7.25;;
63189;SDS011;49286;44.460;26.114;2023-04-28T05:51:18;14.55;;;7.90;;
63189;SDS011;49286;44.460;26.114;2023-04-28T05:53:44;9.98;;;6.95;;
63189;SDS011;49286;44.460;26.114;2023-04-28T05:56:12;20.08;;;9.20;;
63189;SDS011;49286;44.460;26.114;2023-04-28T05:58:41;18.80;;;9.35;;
63189;SDS011;49286;44.460;26.114;2023-04-28T06:01:08;29.02;;;9.25;;
63189;SDS011;49286;44.460;26.114;2023-04-28T06:03:34;16.33;;;7.35;;
63189;SDS011;49286;44.460;26.114;2023-04-28T06:06:00;17.67;;;6.35;;
63189;SDS011;49286;44.460;26.114;2023-04-28T06:08:25;7.75;;;4.88;;
63189;SDS011;49286;44.460;26.114;2023-04-28T06:10:51;8.35;;;5.22;;
63189;SDS011;49286;44.460;26.114;2023-04-28T06:13:16;11.82;;;5.47;;
63189;SDS011;49286;44.460;26.114;2023-04-28T06:15:42;14.52;;;5.55;;
63189;SDS011;49286;44.460;26.114;2023-04-28T06:18:07;12.52;;;5.30;;
63189;SDS011;49286;44.460;26.114;2023-04-28T06:20:33;9.35;;;4.90;;
63189;SDS011;49286;44.460;26.114;2023-04-28T06:23:00;5.97;;;3.72;;
63189;SDS011;49286;44.460;26.114;2023-04-28T06:25:25;6.03;;;4.25;;
63189;SDS011;49286;44.460;26.114;2023-04-28T06:27:51;23.95;;;7.22;;
63189;SDS011;49286;44.460;26.114;2023-04-28T06:30:17;12.25;;;4.13;;
63189;SDS011;49286;44.460;26.114;2023-04-28T06:32:44;8.90;;;4.30;;
63189;SDS011;49286;44.460;26.114;2023-04-28T06:35:10;9.27;;;4.45;;
63189;SDS011;49286;44.460;26.114;2023-04-28T06:37:35;10.50;;;5.07;;
63189;SDS011;49286;44.460;26.114;2023-04-28T06:40:01;14.50;;;4.88;;
63189;SDS011;49286;44.460;26.114;2023-04-28T06:42:26;35.53;;;5.35;;
63189;SDS011;49286;44.460;26.114;2023-04-28T06:44:52;5.72;;;2.75;;
63189;SDS011;49286;44.460;26.114;2023-04-28T06:47:17;7.43;;;3.63;;
63189;SDS011;49286;44.460;26.114;2023-04-28T06:49:43;16.00;;;4.35;;
63189;SDS011;49286;44.460;26.114;2023-04-28T06:52:11;8.73;;;4.05;;
63189;SDS011;49286;44.460;26.114;2023-04-28T06:54:38;10.18;;;3.55;;
63189;SDS011;49286;44.460;26.114;2023-04-28T06:57:03;11.15;;;4.88;;
63189;SDS011;49286;44.460;26.114;2023-04-28T06:59:29;7.72;;;5.30;;
63189;SDS011;49286;44.460;26.114;2023-04-28T07:01:55;8.15;;;3.83;;
63189;SDS011;49286;44.460;26.114;2023-04-28T07:04:21;7.47;;;3.15;;
63189;SDS011;49286;44.460;26.114;2023-04-28T07:06:46;5.38;;;2.67;;
63189;SDS011;49286;44.460;26.114;2023-04-28T07:09:12;20.48;;;4.10;;
63189;SDS011;49286;44.460;26.114;2023-04-28T07:11:37;20.67;;;4.00;;
63189;SDS011;49286;44.460;26.114;2023-04-28T07:14:03;9.00;;;2.42;;
63189;SDS011;49286;44.460;26.114;2023-04-28T07:16:28;16.58;;;2.55;;
63189;SDS011;49286;44.460;26.114;2023-04-28T07:18:54;9.85;;;6.18;;
63189;SDS011;49286;44.460;26.114;2023-04-28T07:21:20;6.00;;;3.30;;
63189;SDS011;49286;44.460;26.114;2023-04-28T07:23:45;10.65;;;3.28;;
63189;SDS011;49286;44.460;26.114;2023-04-28T07:26:13;13.65;;;4.00;;
63189;SDS011;49286;44.460;26.114;2023-04-28T07:28:40;13.15;;;3.88;;
63189;SDS011;49286;44.460;26.114;2023-04-28T07:31:06;11.50;;;3.60;;
63189;SDS011;49286;44.460;26.114;2023-04-28T07:33:32;5.22;;;2.70;;
63189;SDS011;49286;44.460;26.114;2023-04-28T07:35:57;6.13;;;3.28;;
63189;SDS011;49286;44.460;26.114;2023-04-28T07:38:23;11.63;;;4.28;;
63189;SDS011;49286;44.460;26.114;2023-04-28T07:40:49;14.02;;;3.78;;
63189;SDS011;49286;44.460;26.114;2023-04-28T07:43:14;6.93;;;3.25;;
63189;SDS011;49286;44.460;26.114;2023-04-28T07:45:40;6.32;;;2.20;;
63189;SDS011;49286;44.460;26.114;2023-04-28T07:48:05;9.38;;;3.33;;
63189;SDS011;49286;44.460;26.114;2023-04-28T07:50:31;6.93;;;3.50;;
63189;SDS011;49286;44.460;26.114;2023-04-28T07:52:58;9.20;;;4.65;;
63189;SDS011;49286;44.460;26.114;2023-04-28T07:55:23;23.23;;;4.10;;
63189;SDS011;49286;44.460;26.114;2023-04-28T07:57:49;7.90;;;3.63;;
63189;SDS011;49286;44.460;26.114;2023-04-28T08:00:15;18.55;;;9.38;;
63189;SDS011;49286;44.460;26.114;2023-04-28T08:02:41;12.85;;;5.70;;
63189;SDS011;49286;44.460;26.114;2023-04-28T08:05:07;13.02;;;6.55;;
63189;SDS011;49286;44.460;26.114;2023-04-28T08:07:33;26.33;;;6.93;;
63189;SDS011;49286;44.460;26.114;2023-04-28T08:09:59;16.65;;;5.90;;
63189;SDS011;49286;44.460;26.114;2023-04-28T08:12:25;9.98;;;4.85;;
63189;SDS011;49286;44.460;26.114;2023-04-28T08:14:51;17.17;;;8.10;;
63189;SDS011;49286;44.460;26.114;2023-04-28T08:17:16;49.53;;;6.82;;
63189;SDS011;49286;44.460;26.114;2023-04-28T08:19:42;9.65;;;4.93;;
63189;SDS011;49286;44.460;26.114;2023-04-28T08:22:10;12.23;;;4.72;;
63189;SDS011;49286;44.460;26.114;2023-04-28T08:24:36;6.43;;;4.25;;
63189;SDS011;49286;44.460;26.114;2023-04-28T08:27:01;8.68;;;4.18;;
63189;SDS011;49286;44.460;26.114;2023-04-28T08:29:30;13.38;;;5.00;;
63189;SDS011;49286;44.460;26.114;2023-04-28T08:31:56;12.40;;;5.00;;
63189;SDS011;49286;44.460;26.114;2023-04-28T08:34:22;12.38;;;3.50;;
63189;SDS011;49286;44.460;26.114;2023-04-28T08:36:48;15.65;;;5.38;;
63189;SDS011;49286;44.460;26.114;2023-04-28T08:39:13;9.40;;;4.47;;
63189;SDS011;49286;44.460;26.114;2023-04-28T08:41:40;7.22;;;4.57;;
63189;SDS011;49286;44.460;26.114;2023-04-28T08:44:07;9.43;;;4.18;;
63189;SDS011;49286;44.460;26.114;2023-04-28T08:46:33;11.07;;;5.53;;
63189;SDS011;49286;44.460;26.114;2023-04-28T08:49:00;25.08;;;4.20;;
63189;SDS011;49286;44.460;26.114;2023-04-28T08:51:33;8.82;;;4.70;;
63189;SDS011;49286;44.460;26.114;2023-04-28T08:54:01;10.48;;;4.72;;
63189;SDS011;49286;44.460;26.114;2023-04-28T08:56:31;7.78;;;4.05;;
63189;SDS011;49286;44.460;26.114;2023-04-28T08:59:02;7.65;;;4.45;;
63189;SDS011;49286;44.460;26.114;2023-04-28T09:01:29;22.05;;;4.82;;
63189;SDS011;49286;44.460;26.114;2023-04-28T09:03:55;20.15;;;5.57;;
63189;SDS011;49286;44.460;26.114;2023-04-28T09:06:21;7.85;;;4.88;;
63189;SDS011;49286;44.460;26.114;2023-04-28T09:08:47;7.85;;;4.13;;
63189;SDS011;49286;44.460;26.114;2023-04-28T09:11:13;12.88;;;5.13;;
63189;SDS011;49286;44.460;26.114;2023-04-28T09:13:40;9.07;;;4.93;;
63189;SDS011;49286;44.460;26.114;2023-04-28T09:16:06;23.80;;;6.07;;
63189;SDS011;49286;44.460;26.114;2023-04-28T09:18:31;8.18;;;4.13;;
63189;SDS011;49286;44.460;26.114;2023-04-28T09:21:09;40.85;;;5.53;;
63189;SDS011;49286;44.460;26.114;2023-04-28T09:23:45;13.90;;;4.78;;
63189;SDS011;49286;44.460;26.114;2023-04-28T09:26:16;8.15;;;5.28;;
63189;SDS011;49286;44.460;26.114;2023-04-28T09:28:41;8.65;;;5.72;;
63189;SDS011;49286;44.460;26.114;2023-04-28T09:31:20;13.70;;;6.32;;
63189;SDS011;49286;44.460;26.114;2023-04-28T09:33:57;8.70;;;6.35;;
63189;SDS011;49286;44.460;26.114;2023-04-28T09:36:27;22.83;;;7.32;;
63189;SDS011;49286;44.460;26.114;2023-04-28T09:38:56;30.85;;;7.00;;
63189;SDS011;49286;44.460;26.114;2023-04-28T09:41:22;16.20;;;5.95;;
63189;SDS011;49286;44.460;26.114;2023-04-28T09:44:16;36.83;;;5.50;;
63189;SDS011;49286;44.460;26.114;2023-04-28T09:46:46;19.80;;;6.97;;
63189;SDS011;49286;44.460;26.114;2023-04-28T09:49:12;34.55;;;7.88;;
63189;SDS011;49286;44.460;26.114;2023-04-28T09:51:38;48.08;;;11.38;;
63189;SDS011;49286;44.460;26.114;2023-04-28T09:54:05;17.63;;;5.00;;
63189;SDS011;49286;44.460;26.114;2023-04-28T09:56:32;21.52;;;5.50;;
63189;SDS011;49286;44.460;26.114;2023-04-28T09:59:00;13.38;;;5.85;;
63189;SDS011;49286;44.460;26.114;2023-04-28T10:01:26;10.27;;;4.90;;
63189;SDS011;49286;44.460;26.114;2023-04-28T10:03:56;5.43;;;3.78;;
63189;SDS011;49286;44.460;26.114;2023-04-28T10:06:24;6.47;;;3.92;;
63189;SDS011;49286;44.460;26.114;2023-04-28T10:08:51;22.20;;;5.60;;
63189;SDS011;49286;44.460;26.114;2023-04-28T10:11:17;25.70;;;4.80;;
63189;SDS011;49286;44.460;26.114;2023-04-28T10:13:44;38.03;;;7.93;;
63189;SDS011;49286;44.460;26.114;2023-04-28T10:16:12;65.97;;;8.02;;
63189;SDS011;49286;44.460;26.114;2023-04-28T10:18:38;18.85;;;4.85;;
63189;SDS011;49286;44.460;26.114;2023-04-28T10:21:04;28.27;;;5.30;;
63189;SDS011;49286;44.460;26.114;2023-04-28T10:26:08;40.83;;;6.53;;
63189;SDS011;49286;44.460;26.114;2023-04-28T10:28:36;8.68;;;4.25;;
63189;SDS011;49286;44.460;26.114;2023-04-28T10:31:13;9.45;;;4.18;;
63189;SDS011;49286;44.460;26.114;2023-04-28T10:33:39;8.38;;;4.50;;
63189;SDS011;49286;44.460;26.114;2023-04-28T10:36:05;16.85;;;4.55;;
63189;SDS011;49286;44.460;26.114;2023-04-28T10:38:32;10.73;;;4.72;;
63189;SDS011;49286;44.460;26.114;2023-04-28T10:40:59;13.75;;;3.97;;
63189;SDS011;49286;44.460;26.114;2023-04-28T10:58:40;8.68;;;4.57;;
63189;SDS011;49286;44.460;26.114;2023-04-28T11:06:35;10.70;;;3.83;;
63189;SDS011;49286;44.460;26.114;2023-04-28T11:11:38;11.07;;;3.42;;
63189;SDS011;49286;44.460;26.114;2023-04-28T11:19:25;8.00;;;3.33;;
63189;SDS011;49286;44.460;26.114;2023-04-28T11:21:53;5.57;;;3.72;;
63189;SDS011;49286;44.460;26.114;2023-04-28T11:24:21;9.57;;;3.97;;
63189;SDS011;49286;44.460;26.114;2023-04-28T11:26:50;7.50;;;2.88;;
63189;SDS011;49286;44.460;26.114;2023-04-28T11:29:40;8.70;;;2.90;;
63189;SDS011;49286;44.460;26.114;2023-04-28T11:32:07;6.22;;;3.20;;
63189;SDS011;49286;44.460;26.114;2023-04-28T11:34:34;4.93;;;3.00;;
63189;SDS011;49286;44.460;26.114;2023-04-28T11:37:00;8.23;;;2.50;;
63189;SDS011;49286;44.460;26.114;2023-04-28T11:39:30;15.40;;;4.07;;
63189;SDS011;49286;44.460;26.114;2023-04-28T11:41:57;23.38;;;4.28;;
63189;SDS011;49286;44.460;26.114;2023-04-28T11:44:25;5.32;;;3.05;;
63189;SDS011;49286;44.460;26.114;2023-04-28T11:47:01;6.80;;;3.78;;
63189;SDS011;49286;44.460;26.114;2023-04-28T11:52:09;8.60;;;3.10;;
63189;SDS011;49286;44.460;26.114;2023-04-28T11:54:35;6.65;;;3.70;;
63189;SDS011;49286;44.460;26.114;2023-04-28T11:57:01;17.02;;;3.38;;
63189;SDS011;49286;44.460;26.114;2023-04-28T11:59:31;16.65;;;5.60;;
63189;SDS011;49286;44.460;26.114;2023-04-28T12:01:59;14.50;;;3.45;;
63189;SDS011;49286;44.460;26.114;2023-04-28T12:04:27;57.03;;;8.25;;
63189;SDS011;49286;44.460;26.114;2023-04-28T12:06:59;13.48;;;3.17;;
63189;SDS011;49286;44.460;26.114;2023-04-28T12:09:34;16.35;;;3.33;;
63189;SDS011;49286;44.460;26.114;2023-04-28T12:12:04;6.68;;;2.95;;
63189;SDS011;49286;44.460;26.114;2023-04-28T12:17:26;4.25;;;2.50;;
63189;SDS011;49286;44.460;26.114;2023-04-28T12:19:55;6.65;;;3.50;;
63189;SDS011;49286;44.460;26.114;2023-04-28T12:22:22;9.60;;;3.33;;
63189;SDS011;49286;44.460;26.114;2023-04-28T12:27:35;15.63;;;3.30;;
63189;SDS011;49286;44.460;26.114;2023-04-28T12:30:25;10.68;;;3.78;;
63189;SDS011;49286;44.460;26.114;2023-04-28T12:32:53;5.88;;;3.47;;
63189;SDS011;49286;44.460;26.114;2023-04-28T12:35:23;9.63;;;3.35;;
63189;SDS011;49286;44.460;26.114;2023-04-28T12:37:50;5.95;;;3.20;;
63189;SDS011;49286;44.460;26.114;2023-04-28T12:40:17;13.60;;;3.60;;
63189;SDS011;49286;44.460;26.114;2023-04-28T12:42:42;9.05;;;3.20;;
63189;SDS011;49286;44.460;26.114;2023-04-28T12:45:08;6.25;;;3.08;;
63189;SDS011;49286;44.460;26.114;2023-04-28T12:47:34;6.47;;;2.60;;
63189;SDS011;49286;44.460;26.114;2023-04-28T12:49:59;8.27;;;3.15;;
63189;SDS011;49286;44.460;26.114;2023-04-28T12:52:25;6.32;;;3.20;;
63189;SDS011;49286;44.460;26.114;2023-04-28T12:54:50;7.40;;;2.45;;
63189;SDS011;49286;44.460;26.114;2023-04-28T12:57:16;13.40;;;3.53;;
63189;SDS011;49286;44.460;26.114;2023-04-28T12:59:43;7.07;;;3.00;;
63189;SDS011;49286;44.460;26.114;2023-04-28T13:02:10;8.25;;;3.60;;
63189;SDS011;49286;44.460;26.114;2023-04-28T13:04:36;28.00;;;5.22;;
63189;SDS011;49286;44.460;26.114;2023-04-28T13:07:01;8.25;;;3.72;;
63189;SDS011;49286;44.460;26.114;2023-04-28T13:09:27;9.55;;;3.55;;
63189;SDS011;49286;44.460;26.114;2023-04-28T13:11:53;13.93;;;3.88;;
63189;SDS011;49286;44.460;26.114;2023-04-28T13:14:20;8.73;;;3.33;;
63189;SDS011;49286;44.460;26.114;2023-04-28T13:16:45;11.52;;;3.17;;
63189;SDS011;49286;44.460;26.114;2023-04-28T13:19:11;4.97;;;2.92;;
63189;SDS011;49286;44.460;26.114;2023-04-28T13:21:41;6.95;;;3.00;;
63189;SDS011;49286;44.460;26.114;2023-04-28T13:24:07;18.00;;;4.57;;
63189;SDS011;49286;44.460;26.114;2023-04-28T13:26:34;4.95;;;3.05;;
63189;SDS011;49286;44.460;26.114;2023-04-28T13:29:00;16.67;;;3.45;;
63189;SDS011;49286;44.460;26.114;2023-04-28T13:31:26;5.10;;;2.53;;
63189;SDS011;49286;44.460;26.114;2023-04-28T13:33:54;13.68;;;3.83;;
63189;SDS011;49286;44.460;26.114;2023-04-28T13:36:20;10.57;;;5.03;;
63189;SDS011;49286;44.460;26.114;2023-04-28T13:38:46;8.68;;;4.22;;
63189;SDS011;49286;44.460;26.114;2023-04-28T13:41:15;14.38;;;3.20;;
63189;SDS011;49286;44.460;26.114;2023-04-28T13:43:41;7.00;;;2.63;;
63189;SDS011;49286;44.460;26.114;2023-04-28T13:46:07;8.90;;;3.40;;
63189;SDS011;49286;44.460;26.114;2023-04-28T13:48:33;18.88;;;3.53;;
63189;SDS011;49286;44.460;26.114;2023-04-28T13:51:00;5.70;;;2.97;;
63189;SDS011;49286;44.460;26.114;2023-04-28T13:53:26;9.63;;;3.53;;
63189;SDS011;49286;44.460;26.114;2023-04-28T13:55:52;5.22;;;2.45;;
63189;SDS011;49286;44.460;26.114;2023-04-28T13:58:21;9.60;;;3.33;;
63189;SDS011;49286;44.460;26.114;2023-04-28T14:00:55;7.15;;;3.35;;
63189;SDS011;49286;44.460;26.114;2023-04-28T14:03:21;5.30;;;2.97;;
63189;SDS011;49286;44.460;26.114;2023-04-28T14:05:48;6.95;;;2.75;;
63189;SDS011;49286;44.460;26.114;2023-04-28T14:08:16;3.88;;;1.67;;
63189;SDS011;49286;44.460;26.114;2023-04-28T14:10:41;5.90;;;2.60;;
63189;SDS011;49286;44.460;26.114;2023-04-28T14:13:07;6.97;;;4.25;;
63189;SDS011;49286;44.460;26.114;2023-04-28T14:15:33;8.02;;;3.75;;
63189;SDS011;49286;44.460;26.114;2023-04-28T14:17:58;6.55;;;2.92;;
63189;SDS011;49286;44.460;26.114;2023-04-28T14:20:24;8.85;;;3.05;;
63189;SDS011;49286;44.460;26.114;2023-04-28T14:22:49;5.38;;;3.30;;
63189;SDS011;49286;44.460;26.114;2023-04-28T14:25:16;6.68;;;2.95;;
63189;SDS011;49286;44.460;26.114;2023-04-28T14:27:46;6.90;;;3.65;;
63189;SDS011;49286;44.460;26.114;2023-04-28T14:30:13;7.05;;;3.10;;
63189;SDS011;49286;44.460;26.114;2023-04-28T14:32:39;6.63;;;2.45;;
63189;SDS011;49286;44.460;26.114;2023-04-28T14:35:05;8.68;;;4.00;;
63189;SDS011;49286;44.460;26.114;2023-04-28T14:37:31;6.72;;;3.33;;
63189;SDS011;49286;44.460;26.114;2023-04-28T14:39:57;9.30;;;3.03;;
63189;SDS011;49286;44.460;26.114;2023-04-28T14:42:28;11.48;;;3.72;;
63189;SDS011;49286;44.460;26.114;2023-04-28T14:44:55;6.95;;;3.25;;
63189;SDS011;49286;44.460;26.114;2023-04-28T14:47:21;13.40;;;4.38;;
63189;SDS011;49286;44.460;26.114;2023-04-28T14:49:47;11.00;;;3.15;;
63189;SDS011;49286;44.460;26.114;2023-04-28T14:52:12;6.13;;;3.22;;
63189;SDS011;49286;44.460;26.114;2023-04-28T14:54:38;12.07;;;3.90;;
63189;SDS011;49286;44.460;26.114;2023-04-28T14:57:04;5.72;;;3.13;;
63189;SDS011;49286;44.460;26.114;2023-04-28T14:59:30;8.40;;;3.75;;